sensor_id;sensor_type;location;lat;lon;timestamp;pressure;altitude;pressure_sealevel;temperature;humidity
36304;BME280;22335;49.800;8.596;2023-02-20T00:06:30;101626.63;;;15.51;51.21
36304;BME280;22335;49.800;8.596;2023-02-20T00:13:14;101625.31;;;15.43;50.62
36304;BME280;22335;49.800;8.596;2023-02-20T00:20:00;101504.97;;;14.65;50.29
36304;BME280;22335;49.800;8.596;2023-02-20T00:26:46;101608.78;;;15.09;50.53
36304;BME280;22335;49.800;8.596;2023-02-20T00:33:31;101605.22;;;15.04;50.42
36304;BME280;22335;49.800;8.596;2023-02-20T00:40:15;101598.13;;;14.97;50.06
36304;BME280;22335;49.800;8.596;2023-02-20T00:47:01;101596.53;;;14.86;50.22
36304;BME280;22335;49.800;8.596;2023-02-20T00:53:44;101596.81;;;14.85;50.08
36304;BME280;22335;49.800;8.596;2023-02-20T01:00:28;101602.09;;;14.81;50.15
36304;BME280;22335;49.800;8.596;2023-02-20T01:07:14;101603.25;;;14.70;49.55
36304;BME280;22335;49.800;8.596;2023-02-20T01:13:58;101568.69;;;14.43;49.66
36304;BME280;22335;49.800;8.596;2023-02-20T01:20:43;101599.44;;;14.61;49.27
36304;BME280;22335;49.800;8.596;2023-02-20T01:27:28;101590.16;;;14.46;49.34
36304;BME280;22335;49.800;8.596;2023-02-20T01:34:13;101594.53;;;14.42;49.15
36304;BME280;22335;49.800;8.596;2023-02-20T01:40:57;101602.56;;;14.39;49.16
36304;BME280;22335;49.800;8.596;2023-02-20T01:47:43;101588.53;;;14.30;49.41
36304;BME280;22335;49.800;8.596;2023-02-20T01:54:28;101523.00;;;13.88;49.07
36304;BME280;22335;49.800;8.596;2023-02-20T02:01:13;101584.47;;;14.17;49.17
36304;BME280;22335;49.800;8.596;2023-02-20T02:08:03;101577.09;;;14.02;49.58
36304;BME280;22335;49.800;8.596;2023-02-20T02:14:49;101574.94;;;13.94;49.16
36304;BME280;22335;49.800;8.596;2023-02-20T02:37:09;101541.50;;;13.51;49.48
36304;BME280;22335;49.800;8.596;2023-02-20T02:44:09;101536.00;;;13.46;49.00
36304;BME280;22335;49.800;8.596;2023-02-20T02:50:59;101534.09;;;13.36;49.04
36304;BME280;22335;49.800;8.596;2023-02-20T02:57:51;101518.44;;;13.06;48.69
36304;BME280;22335;49.800;8.596;2023-02-20T03:04:37;101539.84;;;13.14;48.87
36304;BME280;22335;49.800;8.596;2023-02-20T03:11:22;101539.88;;;13.04;49.07
36304;BME280;22335;49.800;8.596;2023-02-20T03:18:15;101524.22;;;12.89;49.69
36304;BME280;22335;49.800;8.596;2023-02-20T03:25:05;101525.56;;;12.87;49.77
36304;BME280;22335;49.800;8.596;2023-02-20T03:31:56;101543.44;;;12.79;49.87
36304;BME280;22335;49.800;8.596;2023-02-20T03:39:06;101539.31;;;12.77;50.30
36304;BME280;22335;49.800;8.596;2023-02-20T04:01:18;101554.88;;;12.45;51.40
36304;BME280;22335;49.800;8.596;2023-02-20T04:08:07;101537.50;;;12.14;51.83
36304;BME280;22335;49.800;8.596;2023-02-20T04:14:54;101547.63;;;12.14;52.10
36304;BME280;22335;49.800;8.596;2023-02-20T04:21:43;101547.84;;;11.97;52.73
36304;BME280;22335;49.800;8.596;2023-02-20T04:28:30;101550.25;;;11.88;52.70
36304;BME280;22335;49.800;8.596;2023-02-20T04:35:18;101530.44;;;11.71;53.19
36304;BME280;22335;49.800;8.596;2023-02-20T04:42:06;101539.91;;;11.58;53.49
36304;BME280;22335;49.800;8.596;2023-02-20T04:48:51;101551.09;;;11.46;53.61
36304;BME280;22335;49.800;8.596;2023-02-20T04:55:34;101553.97;;;11.29;54.09
36304;BME280;22335;49.800;8.596;2023-02-20T05:02:24;101556.91;;;11.18;54.55
36304;BME280;22335;49.800;8.596;2023-02-20T05:09:08;101547.44;;;10.98;54.67
36304;BME280;22335;49.800;8.596;2023-02-20T05:15:52;101550.59;;;10.85;55.20
36304;BME280;22335;49.800;8.596;2023-02-20T05:22:37;101550.56;;;10.80;55.50
36304;BME280;22335;49.800;8.596;2023-02-20T05:29:20;101556.19;;;10.68;55.95
36304;BME280;22335;49.800;8.596;2023-02-20T05:36:04;101546.78;;;10.59;55.99
36304;BME280;22335;49.800;8.596;2023-02-20T05:42:50;101538.56;;;10.59;56.25
36304;BME280;22335;49.800;8.596;2023-02-20T05:49:34;101489.72;;;10.19;56.29
36304;BME280;22335;49.800;8.596;2023-02-20T05:56:19;101537.53;;;10.65;55.90
36304;BME280;22335;49.800;8.596;2023-02-20T06:03:06;101543.22;;;10.58;55.96
36304;BME280;22335;49.800;8.596;2023-02-20T06:09:50;101539.72;;;10.63;55.79
36304;BME280;22335;49.800;8.596;2023-02-20T06:16:34;101544.53;;;10.51;56.22
36304;BME280;22335;49.800;8.596;2023-02-20T06:23:19;101543.91;;;10.44;56.24
36304;BME280;22335;49.800;8.596;2023-02-20T06:30:03;101525.31;;;10.24;56.76
36304;BME280;22335;49.800;8.596;2023-02-20T06:36:46;101528.75;;;10.14;57.28
36304;BME280;22335;49.800;8.596;2023-02-20T06:43:31;101537.28;;;10.18;57.04
36304;BME280;22335;49.800;8.596;2023-02-20T06:50:15;101548.84;;;10.25;57.50
36304;BME280;22335;49.800;8.596;2023-02-20T06:56:58;101550.19;;;10.22;57.45
36304;BME280;22335;49.800;8.596;2023-02-20T07:03:45;101559.72;;;10.20;57.89
36304;BME280;22335;49.800;8.596;2023-02-20T07:10:30;101563.28;;;10.20;57.59
36304;BME280;22335;49.800;8.596;2023-02-20T07:17:13;101551.56;;;10.25;57.68
36304;BME280;22335;49.800;8.596;2023-02-20T07:23:58;101563.94;;;10.27;58.40
36304;BME280;22335;49.800;8.596;2023-02-20T07:30:43;101563.19;;;10.32;58.01
36304;BME280;22335;49.800;8.596;2023-02-20T07:37:26;101568.16;;;10.35;58.29
36304;BME280;22335;49.800;8.596;2023-02-20T07:44:11;101534.09;;;10.26;58.69
36304;BME280;22335;49.800;8.596;2023-02-20T07:50:55;101544.94;;;10.37;58.90
36304;BME280;22335;49.800;8.596;2023-02-20T07:57:38;101529.72;;;10.47;58.97
36304;BME280;22335;49.800;8.596;2023-02-20T08:04:23;101526.34;;;10.67;59.26
36304;BME280;22335;49.800;8.596;2023-02-20T08:11:07;101471.72;;;10.45;58.92
36304;BME280;22335;49.800;8.596;2023-02-20T08:17:51;101526.78;;;10.85;59.07
36304;BME280;22335;49.800;8.596;2023-02-20T08:24:36;101516.44;;;10.93;59.10
36304;BME280;22335;49.800;8.596;2023-02-20T08:31:19;101516.16;;;10.89;59.25
36304;BME280;22335;49.800;8.596;2023-02-20T08:38:25;101498.09;;;10.88;59.39
36304;BME280;22335;49.800;8.596;2023-02-20T08:45:13;101480.88;;;10.93;59.72
36304;BME280;22335;49.800;8.596;2023-02-20T08:51:56;101491.34;;;11.01;59.67
36304;BME280;22335;49.800;8.596;2023-02-20T08:58:40;101436.53;;;10.96;59.82
36304;BME280;22335;49.800;8.596;2023-02-20T09:05:25;101483.44;;;11.47;59.83
36304;BME280;22335;49.800;8.596;2023-02-20T09:12:09;101490.06;;;11.61;59.54
36304;BME280;22335;49.800;8.596;2023-02-20T09:18:52;101472.88;;;11.76;59.76
36304;BME280;22335;49.800;8.596;2023-02-20T09:25:41;101485.09;;;12.06;58.94
36304;BME280;22335;49.800;8.596;2023-02-20T09:32:24;101471.19;;;12.33;57.89
36304;BME280;22335;49.800;8.596;2023-02-20T09:39:08;101484.63;;;12.34;58.88
36304;BME280;22335;49.800;8.596;2023-02-20T09:45:58;101419.03;;;12.28;59.14
36304;BME280;22335;49.800;8.596;2023-02-20T09:52:50;101429.19;;;12.78;58.66
36304;BME280;22335;49.800;8.596;2023-02-20T09:59:41;101449.47;;;13.33;58.19
36304;BME280;22335;49.800;8.596;2023-02-20T10:06:29;101373.97;;;13.10;58.45
36304;BME280;22335;49.800;8.596;2023-02-20T10:13:42;101429.50;;;13.82;57.51
36304;BME280;22335;49.800;8.596;2023-02-20T10:20:37;101429.69;;;14.41;56.92
36304;BME280;22335;49.800;8.596;2023-02-20T10:27:30;101419.41;;;14.86;56.52
36304;BME280;22335;49.800;8.596;2023-02-20T10:34:22;101394.09;;;15.13;55.58
36304;BME280;22335;49.800;8.596;2023-02-20T10:41:10;101414.84;;;15.53;55.01
36304;BME280;22335;49.800;8.596;2023-02-20T10:48:04;101415.13;;;15.76;54.45
36304;BME280;22335;49.800;8.596;2023-02-20T10:54:50;101411.41;;;15.85;54.44
36304;BME280;22335;49.800;8.596;2023-02-20T11:01:48;101408.97;;;15.84;54.36
36304;BME280;22335;49.800;8.596;2023-02-20T11:08:37;101342.16;;;15.44;54.04
36304;BME280;22335;49.800;8.596;2023-02-20T11:15:23;101354.63;;;15.60;54.19
36304;BME280;22335;49.800;8.596;2023-02-20T11:22:10;101389.28;;;15.90;53.82
36304;BME280;22335;49.800;8.596;2023-02-20T11:28:59;101371.38;;;16.07;53.58
36304;BME280;22335;49.800;8.596;2023-02-20T11:35:49;101357.53;;;16.26;52.64
36304;BME280;22335;49.800;8.596;2023-02-20T11:42:33;101339.09;;;16.40;52.21
36304;BME280;22335;49.800;8.596;2023-02-20T11:49:26;101333.88;;;16.39;51.20
36304;BME280;22335;49.800;8.596;2023-02-20T11:56:13;101325.41;;;16.49;50.58
36304;BME280;22335;49.800;8.596;2023-02-20T12:03:09;101313.78;;;16.52;50.57
36304;BME280;22335;49.800;8.596;2023-02-20T12:10:01;101280.91;;;16.50;49.57
36304;BME280;22335;49.800;8.596;2023-02-20T12:17:04;101293.50;;;16.56;49.67
36304;BME280;22335;49.800;8.596;2023-02-20T12:24:03;101274.50;;;16.69;49.64
36304;BME280;22335;49.800;8.596;2023-02-20T12:31:19;101274.56;;;16.82;49.39
36304;BME280;22335;49.800;8.596;2023-02-20T12:38:25;101263.47;;;16.96;49.50
36304;BME280;22335;49.800;8.596;2023-02-20T12:45:18;101244.03;;;17.01;49.18
36304;BME280;22335;49.800;8.596;2023-02-20T12:52:21;101247.38;;;17.12;49.15
36304;BME280;22335;49.800;8.596;2023-02-20T12:59:22;101168.75;;;16.82;48.79
36304;BME280;22335;49.800;8.596;2023-02-20T13:06:10;101216.03;;;17.31;47.53
36304;BME280;22335;49.800;8.596;2023-02-20T13:12:58;101214.97;;;17.40;47.52
36304;BME280;22335;49.800;8.596;2023-02-20T13:19:48;101163.72;;;17.20;47.26
36304;BME280;22335;49.800;8.596;2023-02-20T13:26:48;101190.97;;;17.49;47.26
36304;BME280;22335;49.800;8.596;2023-02-20T13:33:34;101204.88;;;17.58;46.88
36304;BME280;22335;49.800;8.596;2023-02-20T13:40:42;101198.22;;;17.59;46.85
36304;BME280;22335;49.800;8.596;2023-02-20T13:47:35;101180.13;;;17.53;46.76
36304;BME280;22335;49.800;8.596;2023-02-20T13:54:25;101158.63;;;17.50;46.65
36304;BME280;22335;49.800;8.596;2023-02-20T14:01:10;101153.28;;;17.54;46.81
36304;BME280;22335;49.800;8.596;2023-02-20T14:07:53;101148.66;;;17.49;46.75
36304;BME280;22335;49.800;8.596;2023-02-20T14:14:41;101139.38;;;17.45;46.63
36304;BME280;22335;49.800;8.596;2023-02-20T14:21:26;101110.75;;;17.49;46.60
36304;BME280;22335;49.800;8.596;2023-02-20T14:28:14;101105.63;;;17.57;46.37
36304;BME280;22335;49.800;8.596;2023-02-20T14:35:05;101082.84;;;17.60;46.01
36304;BME280;22335;49.800;8.596;2023-02-20T14:41:55;101072.16;;;17.67;45.52
36304;BME280;22335;49.800;8.596;2023-02-20T14:48:40;101066.78;;;17.70;45.67
36304;BME280;22335;49.800;8.596;2023-02-20T14:55:25;101056.22;;;17.72;45.18
36304;BME280;22335;49.800;8.596;2023-02-20T15:02:18;101045.63;;;17.66;45.11
36304;BME280;22335;49.800;8.596;2023-02-20T15:09:14;101037.75;;;17.82;44.76
36304;BME280;22335;49.800;8.596;2023-02-20T15:16:06;101026.50;;;17.87;44.50
36304;BME280;22335;49.800;8.596;2023-02-20T15:23:06;101018.59;;;17.94;44.73
36304;BME280;22335;49.800;8.596;2023-02-20T15:30:10;100960.69;;;17.66;44.50
36304;BME280;22335;49.800;8.596;2023-02-20T15:36:56;101015.66;;;17.99;43.90
36304;BME280;22335;49.800;8.596;2023-02-20T15:43:40;101013.22;;;17.97;43.84
36304;BME280;22335;49.800;8.596;2023-02-20T15:50:28;101012.88;;;17.99;43.47
36304;BME280;22335;49.800;8.596;2023-02-20T15:57:15;100975.06;;;17.77;43.42
36304;BME280;22335;49.800;8.596;2023-02-20T16:03:59;101011.75;;;18.00;43.18
36304;BME280;22335;49.800;8.596;2023-02-20T16:10:42;100994.00;;;18.01;43.06
36304;BME280;22335;49.800;8.596;2023-02-20T16:17:31;100933.44;;;17.51;43.11
36304;BME280;22335;49.800;8.596;2023-02-20T16:24:15;101002.97;;;17.98;42.82
36304;BME280;22335;49.800;8.596;2023-02-20T16:30:59;101007.69;;;17.97;42.80
36304;BME280;22335;49.800;8.596;2023-02-20T16:37:44;101009.78;;;17.92;42.47
36304;BME280;22335;49.800;8.596;2023-02-20T16:44:33;101014.16;;;17.84;42.78
36304;BME280;22335;49.800;8.596;2023-02-20T16:51:19;101026.22;;;17.88;42.55
36304;BME280;22335;49.800;8.596;2023-02-20T16:58:06;100938.53;;;17.26;42.43
36304;BME280;22335;49.800;8.596;2023-02-20T17:04:50;100951.78;;;17.38;42.53
36304;BME280;22335;49.800;8.596;2023-02-20T17:11:33;101014.56;;;17.69;42.40
36304;BME280;22335;49.800;8.596;2023-02-20T17:18:18;101002.47;;;17.56;42.46
36304;BME280;22335;49.800;8.596;2023-02-20T17:25:05;100997.81;;;17.43;42.57
36304;BME280;22335;49.800;8.596;2023-02-20T17:31:49;101014.91;;;17.45;42.37
36304;BME280;22335;49.800;8.596;2023-02-20T17:38:34;100988.44;;;17.21;42.39
36304;BME280;22335;49.800;8.596;2023-02-20T17:45:17;100965.72;;;17.02;42.69
36304;BME280;22335;49.800;8.596;2023-02-20T17:52:01;101036.19;;;17.36;42.14
36304;BME280;22335;49.800;8.596;2023-02-20T17:58:46;101030.91;;;17.25;42.10
36304;BME280;22335;49.800;8.596;2023-02-20T18:05:30;101039.84;;;17.22;42.08
36304;BME280;22335;49.800;8.596;2023-02-20T18:12:13;101046.19;;;17.00;42.49
36304;BME280;22335;49.800;8.596;2023-02-20T18:18:58;101043.78;;;16.71;42.89
36304;BME280;22335;49.800;8.596;2023-02-20T18:25:42;101049.31;;;16.71;42.78
36304;BME280;22335;49.800;8.596;2023-02-20T18:32:26;101041.38;;;16.56;43.07
36304;BME280;22335;49.800;8.596;2023-02-20T18:39:13;101035.91;;;16.42;43.20
36304;BME280;22335;49.800;8.596;2023-02-20T18:45:56;101031.44;;;16.32;43.08
36304;BME280;22335;49.800;8.596;2023-02-20T18:52:40;101045.13;;;16.24;43.36
36304;BME280;22335;49.800;8.596;2023-02-20T18:59:28;101043.75;;;16.49;43.17
36304;BME280;22335;49.800;8.596;2023-02-20T19:06:22;101040.03;;;15.89;44.04
36304;BME280;22335;49.800;8.596;2023-02-20T19:13:07;101013.97;;;15.68;43.81
36304;BME280;22335;49.800;8.596;2023-02-20T19:19:52;101038.19;;;15.71;44.17
36304;BME280;22335;49.800;8.596;2023-02-20T19:26:36;101026.41;;;15.65;44.35
36304;BME280;22335;49.800;8.596;2023-02-20T19:33:19;101048.19;;;15.67;44.41
36304;BME280;22335;49.800;8.596;2023-02-20T19:40:05;101050.81;;;15.58;44.51
36304;BME280;22335;49.800;8.596;2023-02-20T19:46:50;100982.59;;;15.04;44.77
36304;BME280;22335;49.800;8.596;2023-02-20T19:53:34;101059.25;;;15.48;44.56
36304;BME280;22335;49.800;8.596;2023-02-20T20:00:19;101063.91;;;15.34;44.88
36304;BME280;22335;49.800;8.596;2023-02-20T20:07:03;101027.19;;;15.06;44.94
36304;BME280;22335;49.800;8.596;2023-02-20T20:13:47;101000.56;;;14.82;44.98
36304;BME280;22335;49.800;8.596;2023-02-20T20:20:31;101073.13;;;15.10;45.45
36304;BME280;22335;49.800;8.596;2023-02-20T20:27:16;101066.97;;;14.99;45.63
36304;BME280;22335;49.800;8.596;2023-02-20T20:34:01;101070.97;;;14.88;45.89
36304;BME280;22335;49.800;8.596;2023-02-20T20:40:46;101068.44;;;14.73;46.20
36304;BME280;22335;49.800;8.596;2023-02-20T20:47:33;101056.19;;;14.65;46.35
36304;BME280;22335;49.800;8.596;2023-02-20T20:54:17;101059.81;;;14.37;46.65
36304;BME280;22335;49.800;8.596;2023-02-20T21:01:03;101046.84;;;14.18;47.14
36304;BME280;22335;49.800;8.596;2023-02-20T21:07:46;101033.13;;;13.94;47.29
36304;BME280;22335;49.800;8.596;2023-02-20T21:14:30;101062.03;;;14.16;47.31
36304;BME280;22335;49.800;8.596;2023-02-20T21:21:24;100975.16;;;13.67;47.74
36304;BME280;22335;49.800;8.596;2023-02-20T21:28:09;101046.13;;;14.13;47.11
36304;BME280;22335;49.800;8.596;2023-02-20T21:34:52;101033.06;;;13.99;47.37
36304;BME280;22335;49.800;8.596;2023-02-20T21:41:37;101043.31;;;13.94;47.52
36304;BME280;22335;49.800;8.596;2023-02-20T21:48:38;101041.63;;;13.98;47.69
36304;BME280;22335;49.800;8.596;2023-02-20T21:55:22;101009.06;;;13.81;47.67
36304;BME280;22335;49.800;8.596;2023-02-20T22:02:10;101042.59;;;14.07;47.15
36304;BME280;22335;49.800;8.596;2023-02-20T22:08:56;101036.16;;;14.17;47.08
36304;BME280;22335;49.800;8.596;2023-02-20T22:15:57;101036.38;;;14.20;47.01
36304;BME280;22335;49.800;8.596;2023-02-20T22:22:59;101031.47;;;14.17;47.16
36304;BME280;22335;49.800;8.596;2023-02-20T22:30:03;100965.56;;;13.64;47.02
36304;BME280;22335;49.800;8.596;2023-02-20T22:37:05;101036.56;;;14.05;47.28
36304;BME280;22335;49.800;8.596;2023-02-20T22:44:07;100947.63;;;13.48;47.10
36304;BME280;22335;49.800;8.596;2023-02-20T22:51:09;101024.31;;;13.97;47.28
36304;BME280;22335;49.800;8.596;2023-02-20T22:58:10;100950.28;;;13.53;46.85
36304;BME280;22335;49.800;8.596;2023-02-20T23:05:14;101016.63;;;13.94;46.88
36304;BME280;22335;49.800;8.596;2023-02-20T23:12:15;100941.59;;;13.46;47.11
36304;BME280;22335;49.800;8.596;2023-02-20T23:19:16;101012.13;;;13.79;47.20
36304;BME280;22335;49.800;8.596;2023-02-20T23:26:18;101018.06;;;13.63;47.47
36304;BME280;22335;49.800;8.596;2023-02-20T23:33:19;101011.25;;;13.60;47.49
36304;BME280;22335;49.800;8.596;2023-02-20T23:40:20;100979.59;;;13.38;47.65
36304;BME280;22335;49.800;8.596;2023-02-20T23:47:23;101016.16;;;13.63;47.72
36304;BME280;22335;49.800;8.596;2023-02-20T23:54:24;101017.22;;;13.67;47.59
